Terminal Aerodrome Forecast
Issued by NWS

Home | Current Version | Previous Version | Text Only | Print | Product List | Glossary On
Versions: 1 2 3 4 5 6 7 8 9 10 11 12 13 14 15 16 17
000
FTUS45 KABQ 270500
TAFGUP
TAF
KGUP 270539Z 2706/2806 VRB03KT P6SM BKN050
      TEMPO 2710/2713 BKN025
     FM271600 04006KT P6SM SCT070
     FM272000 05007KT P6SM BKN060=

USA.gov is the U.S. government's official web portal to all federal, state and local government web resources and services.